Adams Lake, Indiana
Current Conditions -  °F | °C
As of 1:35 PM on Thursday 29 Jan 2015 (Local Time) from KANQ Reporting Station
Overcast Overcast  
Wind Chill: 27°   Ceiling: 2100
Heat Index: 36°   Visibility: 10mi
Dew Point: 30°   Wind: 14mph
Humidity: 81%   Direction: 330°NNW
Pressure: 29.75"   Gusts: NA
Location:  41.5677°N, 85.3125°W
Report Text: KANQ 291835Z AUTO 33012KT 10SM BKN021 OVC026 02/M01 A2975 RMK
Loading
Personal Weather Stations






























Interactive Weather Map New forecast layout! Learn more

10-Day Weather Forecast

Advertisements
Track Severe Weather on mobile